Time,TemperatureF,DewpointF,PressureIn,WindDirection,WindDirectionDegrees,WindSpeedMPH,WindSpeedGustMPH,Humidity,HourlyPrecipIn,Conditions,Clouds,dailyrainin,SoftwareType,DateUTC
2013-07-02 00:05:00,64.2,63.0,30.05,East,82,0.0,6.0,95,0.03,,,0.00,weatherlink.com 1.10,2013-07-02 04:05:00,
2013-07-02 00:20:00,64.0,63.0,30.04,East,97,0.0,5.0,95,0.02,,,0.00,weatherlink.com 1.10,2013-07-02 04:20:00,
2013-07-02 00:35:00,63.7,62.0,30.04,East,85,6.0,8.0,94,0.00,,,0.00,weatherlink.com 1.10,2013-07-02 04:35:00,
2013-07-02 00:51:00,63.5,62.0,30.04,East,84,3.0,10.0,94,0.00,,,0.00,weatherlink.com 1.10,2013-07-02 04:51:00,
2013-07-02 01:05:00,63.4,62.0,30.05,West,278,1.0,5.0,94,0.00,,,0.00,weatherlink.com 1.10,2013-07-02 05:05:00,
2013-07-02 01:20:00,63.3,62.0,30.05,NE,36,0.0,1.0,94,0.00,,,0.00,weatherlink.com 1.10,2013-07-02 05:20:00,
2013-07-02 01:35:00,63.3,62.0,30.05,East,87,0.0,2.0,94,0.00,,,0.00,weatherlink.com 1.10,2013-07-02 05:35:00,
2013-07-02 01:50:00,63.2,62.0,30.05,SE,143,2.0,2.0,95,0.00,,,0.00,weatherlink.com 1.10,2013-07-02 05:50:00,
2013-07-02 02:05:00,63.0,62.0,30.06,SE,134,0.0,2.0,95,0.00,,,0.00,weatherlink.com 1.10,2013-07-02 06:05:00,
2013-07-02 02:20:00,63.0,61.0,30.05,ESE,121,2.0,4.0,94,0.00,,,0.00,weatherlink.com 1.10,2013-07-02 06:20:00,
2013-07-02 02:36:00,63.0,62.0,30.05,SE,142,1.0,4.0,95,0.00,,,0.00,weatherlink.com 1.10,2013-07-02 06:36:00,
2013-07-02 02:51:00,62.8,61.0,30.06,East,84,1.0,2.0,95,0.00,,,0.00,weatherlink.com 1.10,2013-07-02 06:51:00,
2013-07-02 03:06:00,62.7,61.0,30.06,ESE,115,0.0,2.0,95,0.01,,,0.01,weatherlink.com 1.10,2013-07-02 07:06:00,
2013-07-02 03:22:00,62.6,61.0,30.06,ESE,116,1.0,3.0,95,0.01,,,0.01,weatherlink.com 1.10,2013-07-02 07:22:00,
2013-07-02 03:36:00,62.4,61.0,30.06,NE,45,0.0,2.0,95,0.01,,,0.01,weatherlink.com 1.10,2013-07-02 07:36:00,
2013-07-02 03:51:00,62.4,61.0,30.07,ESE,102,0.0,2.0,95,0.01,,,0.01,weatherlink.com 1.10,2013-07-02 07:51:00,
2013-07-02 04:06:00,62.2,61.0,30.07,SE,132,0.0,1.0,96,0.00,,,0.01,weatherlink.com 1.10,2013-07-02 08:06:00,
2013-07-02 04:21:00,61.9,61.0,30.07,East,89,0.0,3.0,96,0.01,,,0.02,weatherlink.com 1.10,2013-07-02 08:21:00,
2013-07-02 04:36:00,61.8,61.0,30.07,NE,37,0.0,1.0,96,0.01,,,0.02,weatherlink.com 1.10,2013-07-02 08:36:00,
2013-07-02 04:51:00,61.7,61.0,30.07,ESE,123,0.0,2.0,96,0.02,,,0.03,weatherlink.com 1.10,2013-07-02 08:51:00,
2013-07-02 05:06:00,61.7,61.0,30.08,SSE,147,0.0,2.0,97,0.02,,,0.03,weatherlink.com 1.10,2013-07-02 09:06:00,
2013-07-02 05:21:00,61.6,61.0,30.08,East,96,0.0,1.0,97,0.02,,,0.04,weatherlink.com 1.10,2013-07-02 09:21:00,
2013-07-02 05:36:00,61.6,61.0,30.09,East,97,2.0,2.0,97,0.03,,,0.05,weatherlink.com 1.10,2013-07-02 09:36:00,
2013-07-02 05:51:00,61.4,61.0,30.09,SE,125,1.0,2.0,97,0.04,,,0.07,weatherlink.com 1.10,2013-07-02 09:51:00,
2013-07-02 06:06:00,61.4,61.0,30.09,ESE,113,0.0,1.0,97,0.05,,,0.08,weatherlink.com 1.10,2013-07-02 10:06:00,
2013-07-02 06:21:00,61.3,61.0,30.09,ESE,109,1.0,3.0,97,0.04,,,0.08,weatherlink.com 1.10,2013-07-02 10:21:00,
2013-07-02 06:36:00,61.4,61.0,30.10,ESE,108,1.0,2.0,97,0.04,,,0.09,weatherlink.com 1.10,2013-07-02 10:36:00,
2013-07-02 06:51:00,61.4,60.0,30.10,ENE,71,0.0,1.0,96,0.02,,,0.09,weatherlink.com 1.10,2013-07-02 10:51:00,
2013-07-02 07:21:00,61.8,61.0,30.11,East,93,1.0,3.0,96,0.01,,,0.09,weatherlink.com 1.10,2013-07-02 11:21:00,
2013-07-02 07:36:00,62.0,61.0,30.10,ENE,76,0.0,3.0,96,0.00,,,0.09,weatherlink.com 1.10,2013-07-02 11:36:00,
2013-07-02 07:51:00,62.6,61.0,30.10,ESE,122,0.0,3.0,95,0.00,,,0.09,weatherlink.com 1.10,2013-07-02 11:51:00,
2013-07-02 08:06:00,62.8,61.0,30.11,East,97,1.0,3.0,95,0.00,,,0.09,weatherlink.com 1.10,2013-07-02 12:06:00,
2013-07-02 08:21:00,62.9,61.0,30.12,NE,46,0.0,2.0,94,0.00,,,0.09,weatherlink.com 1.10,2013-07-02 12:21:00,
2013-07-02 08:36:00,63.5,62.0,30.12,SE,129,1.0,3.0,94,0.00,,,0.09,weatherlink.com 1.10,2013-07-02 12:36:00,
2013-07-02 08:51:00,63.7,62.0,30.11,ESE,109,0.0,3.0,93,0.00,,,0.09,weatherlink.com 1.10,2013-07-02 12:51:00,
2013-07-02 09:06:00,64.4,63.0,30.12,NNE,32,0.0,1.0,94,0.00,,,0.09,weatherlink.com 1.10,2013-07-02 13:06:00,
2013-07-02 09:21:00,64.9,63.0,30.11,NNW,338,0.0,2.0,92,0.00,,,0.09,weatherlink.com 1.10,2013-07-02 13:21:00,
2013-07-02 09:36:00,64.7,62.0,30.11,East,98,3.0,5.0,91,0.00,,,0.09,weatherlink.com 1.10,2013-07-02 13:36:00,
2013-07-02 09:51:00,64.6,63.0,30.11,ESE,104,2.0,4.0,93,0.00,,,0.09,weatherlink.com 1.10,2013-07-02 13:51:00,
2013-07-02 10:06:00,65.1,63.0,30.11,NE,41,1.0,3.0,92,0.00,,,0.09,weatherlink.com 1.10,2013-07-02 14:06:00,
2013-07-02 10:21:00,66.4,64.0,30.11,WNW,290,1.0,1.0,90,0.00,,,0.09,weatherlink.com 1.10,2013-07-02 14:21:00,
2013-07-02 10:36:00,66.7,63.0,30.11,NW,307,0.0,2.0,88,0.00,,,0.09,weatherlink.com 1.10,2013-07-02 14:36:00,
2013-07-02 10:51:00,66.9,64.0,30.09,ENE,78,2.0,3.0,89,0.00,,,0.09,weatherlink.com 1.10,2013-07-02 14:51:00,
2013-07-02 11:06:00,68.1,64.0,30.10,South,176,1.0,2.0,87,0.00,,,0.09,weatherlink.com 1.10,2013-07-02 15:06:00,
2013-07-02 11:21:00,69.1,65.0,30.11,West,276,0.0,2.0,86,0.00,,,0.09,weatherlink.com 1.10,2013-07-02 15:21:00,
2013-07-02 11:36:00,69.0,64.0,30.11,NE,36,0.0,3.0,85,0.00,,,0.09,weatherlink.com 1.10,2013-07-02 15:36:00,
2013-07-02 11:51:00,69.0,65.0,30.11,ESE,105,2.0,3.0,88,0.00,,,0.09,weatherlink.com 1.10,2013-07-02 15:51:00,
2013-07-02 12:06:00,70.9,66.0,30.11,SW,214,1.0,2.0,83,0.00,,,0.09,weatherlink.com 1.10,2013-07-02 16:06:00,
2013-07-02 12:22:00,72.3,66.0,30.10,SSE,160,0.0,4.0,81,0.00,,,0.09,weatherlink.com 1.10,2013-07-02 16:22:00,
2013-07-02 12:37:00,72.3,67.0,30.10,ESE,120,4.0,4.0,82,0.00,,,0.09,weatherlink.com 1.10,2013-07-02 16:37:00,
2013-07-02 12:52:00,74.5,68.0,30.10,SE,145,2.0,3.0,80,0.00,,,0.09,weatherlink.com 1.10,2013-07-02 16:52:00,
2013-07-02 13:07:00,74.7,68.0,30.09,SE,127,2.0,4.0,79,0.00,,,0.09,weatherlink.com 1.10,2013-07-02 17:07:00,
2013-07-02 13:22:00,76.8,69.0,30.09,East,91,1.0,5.0,77,0.00,,,0.09,weatherlink.com 1.10,2013-07-02 17:22:00,
2013-07-02 13:52:00,77.0,70.0,30.08,SSE,161,3.0,6.0,79,0.00,,,0.09,weatherlink.com 1.10,2013-07-02 17:52:00,
2013-07-02 14:07:00,75.5,69.0,30.07,ESE,102,4.0,6.0,80,0.00,,,0.09,weatherlink.com 1.10,2013-07-02 18:07:00,
2013-07-02 14:22:00,76.2,70.0,30.06,SSE,147,2.0,5.0,81,0.00,,,0.09,weatherlink.com 1.10,2013-07-02 18:22:00,
2013-07-02 14:37:00,76.8,70.0,30.06,ESE,123,3.0,6.0,79,0.00,,,0.09,weatherlink.com 1.10,2013-07-02 18:37:00,
2013-07-02 14:52:00,78.0,71.0,30.06,East,94,4.0,6.0,78,0.00,,,0.09,weatherlink.com 1.10,2013-07-02 18:52:00,
2013-07-02 15:07:00,78.6,71.0,30.05,SE,146,3.0,7.0,78,0.00,,,0.09,weatherlink.com 1.10,2013-07-02 19:07:00,
2013-07-02 15:22:00,79.2,72.0,30.05,SE,142,4.0,8.0,79,0.00,,,0.09,weatherlink.com 1.10,2013-07-02 19:22:00,
2013-07-02 15:37:00,78.8,72.0,30.05,South,174,4.0,7.0,79,0.00,,,0.09,weatherlink.com 1.10,2013-07-02 19:37:00,
2013-07-02 15:52:00,80.5,72.0,30.04,SE,141,0.0,5.0,76,0.00,,,0.09,weatherlink.com 1.10,2013-07-02 19:52:00,
2013-07-02 16:07:00,80.3,73.0,30.03,SE,134,4.0,5.0,77,0.00,,,0.09,weatherlink.com 1.10,2013-07-02 20:07:00,
2013-07-02 16:22:00,79.2,73.0,30.02,SE,126,1.0,4.0,81,0.00,,,0.09,weatherlink.com 1.10,2013-07-02 20:22:00,
2013-07-02 16:37:00,78.8,74.0,30.03,ENE,66,0.0,1.0,85,0.00,,,0.09,weatherlink.com 1.10,2013-07-02 20:37:00,
2013-07-02 16:52:00,78.4,74.0,30.04,NE,56,0.0,1.0,85,0.00,,,0.09,weatherlink.com 1.10,2013-07-02 20:52:00,
2013-07-02 17:07:00,77.6,74.0,30.04,NE,56,0.0,1.0,89,0.00,,,0.09,weatherlink.com 1.10,2013-07-02 21:07:00,
2013-07-02 17:22:00,76.6,74.0,30.04,North,7,0.0,2.0,90,0.00,,,0.09,weatherlink.com 1.10,2013-07-02 21:22:00,
2013-07-02 17:37:00,77.2,74.0,30.04,NNE,15,0.0,1.0,88,0.00,,,0.09,weatherlink.com 1.10,2013-07-02 21:37:00,
2013-07-02 17:52:00,76.8,73.0,30.04,NNE,25,1.0,1.0,89,0.00,,,0.09,weatherlink.com 1.10,2013-07-02 21:52:00,
2013-07-02 18:07:00,76.0,74.0,30.04,NNE,31,2.0,2.0,92,0.00,,,0.09,weatherlink.com 1.10,2013-07-02 22:07:00,
2013-07-02 18:22:00,75.1,72.0,30.05,NNW,332,0.0,3.0,90,0.00,,,0.09,weatherlink.com 1.10,2013-07-02 22:22:00,
2013-07-02 18:37:00,74.2,72.0,30.07,WSW,250,2.0,4.0,92,0.02,,,0.11,weatherlink.com 1.10,2013-07-02 22:37:00,
2013-07-02 18:52:00,73.1,71.0,30.06,NE,42,0.0,2.0,93,0.19,,,0.28,weatherlink.com 1.10,2013-07-02 22:52:00,
2013-07-02 19:07:00,72.7,71.0,30.05,East,97,0.0,4.0,95,0.20,,,0.29,weatherlink.com 1.10,2013-07-02 23:07:00,
2013-07-02 19:22:00,71.8,70.0,30.06,NE,53,1.0,7.0,93,0.20,,,0.29,weatherlink.com 1.10,2013-07-02 23:22:00,
2013-07-02 19:37:00,70.9,69.0,30.08,SE,138,2.0,5.0,93,0.18,,,0.29,weatherlink.com 1.10,2013-07-02 23:37:00,
2013-07-02 19:52:00,70.4,69.0,30.08,SE,129,0.0,1.0,94,0.01,,,0.29,weatherlink.com 1.10,2013-07-02 23:52:00,
2013-07-02 20:07:00,69.8,68.0,30.08,SE,143,0.0,2.0,95,0.00,,,0.29,weatherlink.com 1.10,2013-07-03 00:07:00,
2013-07-02 20:22:00,69.6,69.0,30.08,SE,143,0.0,0.0,96,0.00,,,0.29,weatherlink.com 1.10,2013-07-03 00:22:00,
2013-07-02 20:37:00,69.3,68.0,30.09,NE,50,1.0,1.0,96,0.00,,,0.29,weatherlink.com 1.10,2013-07-03 00:37:00,
2013-07-02 20:52:00,68.9,68.0,30.09,NE,50,0.0,1.0,96,0.00,,,0.29,weatherlink.com 1.10,2013-07-03 00:52:00,
2013-07-02 21:07:00,68.6,68.0,30.09,NE,50,0.0,1.0,97,0.00,,,0.29,weatherlink.com 1.10,2013-07-03 01:07:00,
2013-07-02 21:22:00,68.7,68.0,30.09,NE,50,1.0,1.0,97,0.00,,,0.29,weatherlink.com 1.10,2013-07-03 01:22:00,
2013-07-02 21:37:00,68.6,68.0,30.10,NE,50,0.0,1.0,98,0.00,,,0.29,weatherlink.com 1.10,2013-07-03 01:37:00,
2013-07-02 21:52:00,69.1,69.0,30.10,NE,50,0.0,1.0,98,0.00,,,0.29,weatherlink.com 1.10,2013-07-03 01:52:00,
2013-07-02 22:22:00,68.7,68.0,30.10,NE,50,0.0,1.0,98,0.01,,,0.30,weatherlink.com 1.10,2013-07-03 02:22:00,
2013-07-02 22:37:00,68.5,68.0,30.10,NE,50,0.0,1.0,98,0.01,,,0.30,weatherlink.com 1.10,2013-07-03 02:37:00,
2013-07-02 22:52:00,68.5,68.0,30.10,East,98,0.0,1.0,98,0.01,,,0.30,weatherlink.com 1.10,2013-07-03 02:52:00,
2013-07-02 23:07:00,68.8,68.0,30.10,ENE,73,0.0,1.0,98,0.00,,,0.30,weatherlink.com 1.10,2013-07-03 03:07:00,
2013-07-02 23:22:00,68.7,68.0,30.10,ENE,63,0.0,1.0,98,0.00,,,0.30,weatherlink.com 1.10,2013-07-03 03:22:00,
2013-07-02 23:37:00,68.8,68.0,30.10,ENE,63,0.0,0.0,98,0.00,,,0.30,weatherlink.com 1.10,2013-07-03 03:37:00,